Minerva Zenia — SYNB — position and weather

sailwx.info

Track history (hours):
 
Tides and Currents Weather Stations Pressure Air Temp Water Temp Dewpoint Dewpoint Depression Visibility Wind Speed Wind Dir Waves Ship Positions

Minerva Zenia

Last reported at 2017-Nov-20 00:18 UTC. Time now 2017-Nov-20 07:49 UTC.
Position N 50°23' E 000°24'.

Length 248 m; draft 7 m.

Type: Ship. MMSI: 240014000.

Date/timePositionNaut miles runAvg speedWind from/ knotsBaromVisibWave heightAir tempDewpointWater temp
2017-Nov-20 00:18N 50°23' E 000°24'311.2
2017-Nov-20 00:00N 50°22' E 000°19'611.6
2017-Nov-19 23:30N 50°21' E 000°11'612.1
2017-Nov-19 23:00N 50°19' E 000°02'612.7
2017-Nov-19 22:30N 50°18' W 000°08'713.2
2017-Nov-19 22:00N 50°16' W 000°18'2414.0
2017-Nov-19 20:18N 50°09' W 000°54'514.2
2017-Nov-19 19:58N 50°08' W 001°01'714.1
2017-Nov-19 19:29N 50°07' W 001°12'713.9
2017-Nov-19 19:00N 50°06' W 001°22'713.7
2017-Nov-19 18:30N 50°04' W 001°32'713.1
2017-Nov-19 18:00N 50°02' W 001°42'612.6
2017-Nov-19 17:30N 50°01' W 001°51'611.7
2017-Nov-19 17:00N 49°59' W 002°00'511.0
2017-Nov-19 16:30N 49°58' W 002°08'510.4
2017-Nov-19 16:00N 49°56' W 002°16'610.0
2017-Nov-19 15:27N 49°54' W 002°24'8 9.7
2017-Nov-19 14:36N 49°52' W 002°37'1 9.5
2017-Nov-19 14:27N 49°51' W 002°39'4 9.6
2017-Nov-19 14:00N 49°50' W 002°45'5 9.7
2017-Nov-19 13:30N 49°49' W 002°52'510.0
2017-Nov-19 13:00N 49°46' W 002°59'510.1
2017-Nov-19 12:30N 49°44' W 003°06'510.1
2017-Nov-19 12:00N 49°42' W 003°13'2010.4
2017-Nov-19 10:05N 49°32' W 003°40'210.4
2017-Nov-19 09:51N 49°30' W 003°43'510.5
2017-Nov-19 09:26N 49°28' W 003°49'4311.5
2017-Nov-19 05:44N 49°06' W 004°44'616.6
2017-Nov-19 05:24N 49°03' W 004°52'510.4
2017-Nov-19 04:55N 49°01' W 004°58'513.2
2017-Nov-19 04:30N 48°58' W 005°06'713.1
2017-Nov-19 04:00N 48°55' W 005°14'813.3
2017-Nov-19 03:23N 48°51' W 005°25'513.4
2017-Nov-19 03:00N 48°48' W 005°31'1012.9
2017-Nov-19 02:11N 48°39' W 005°41'212.8
2017-Nov-19 02:00N 48°37' W 005°43'712.7
2017-Nov-19 01:28N 48°31' W 005°47'812.3
2017-Nov-19 00:47N 48°24' W 005°53'311.9
2017-Nov-19 00:30N 48°20' W 005°53'612.0
2017-Nov-19 00:00N 48°14' W 005°52'611.5
2017-Nov-18 23:30N 48°09' W 005°50'611.4
2017-Nov-18 23:00N 48°03' W 005°47'610.8
2017-Nov-18 22:29N 47°58' W 005°44'510.7
2017-Nov-18 21:59N 47°53' W 005°41'510.7
2017-Nov-18 21:29N 47°49' W 005°37'710.6
2017-Nov-18 20:52N 47°42' W 005°33'510.6
2017-Nov-18 20:21N 47°37' W 005°30'410.6
2017-Nov-18 19:57N 47°34' W 005°28'510.5
2017-Nov-18 19:29N 47°29' W 005°25'510.5
2017-Nov-18 19:00N 47°24' W 005°22'510.6
2017-Nov-18 18:30N 47°19' W 005°19'610.3
2017-Nov-18 17:58N 47°14' W 005°16'510.4
2017-Nov-18 17:30N 47°10' W 005°14'510.4
2017-Nov-18 17:00N 47°05' W 005°11'510.6
2017-Nov-18 16:30N 46°60' W 005°09'510.3
2017-Nov-18 16:00N 46°55' W 005°06'510.5
2017-Nov-18 15:30N 46°50' W 005°03'611.1
2017-Nov-18 15:00N 46°45' W 004°60'711.3
2017-Nov-18 14:25N 46°39' W 004°56'511.3
2017-Nov-18 14:00N 46°35' W 004°53'811.2
2017-Nov-18 13:18N 46°27' W 004°49'311.4
2017-Nov-18 13:00N 46°24' W 004°47'611.6
2017-Nov-18 12:30N 46°19' W 004°44'611.2
2017-Nov-18 12:00N 46°14' W 004°41'610.9
2017-Nov-18 11:26N 46°08' W 004°38'510.8
2017-Nov-18 11:00N 46°03' W 004°36'13111.1
2017-Nov-17 23:11N 44°02' W 003°27'211.1
2017-Nov-17 23:01N 44°00' W 003°26'611.1
2017-Nov-17 22:26N 43°54' W 003°22'510.8
2017-Nov-17 22:00N 43°50' W 003°20'511.0
2017-Nov-17 21:30N 43°45' W 003°17'511.0
2017-Nov-17 21:00N 43°40' W 003°14'510.8
2017-Nov-17 20:30N 43°35' W 003°11'510.8
2017-Nov-17 20:00N 43°30' W 003°08'611.3
2017-Nov-17 19:30N 43°24' W 003°06'2 4.7
2017-Nov-17 19:00N 43°22' W 003°05'0 0.6
2017-Nov-17 18:30N 43°22' W 003°06'0 0.0
2017-Nov-16 08:57N 43°22' W 003°06'0 0.0
2017-Nov-16 08:30N 43°22' W 003°06'0 0.0
2017-Nov-16 08:00N 43°22' W 003°06'0 0.0
2017-Nov-16 07:30N 43°22' W 003°06'1 1.3
2017-Nov-16 07:00N 43°23' W 003°05'3 5.6
2017-Nov-16 06:30N 43°25' W 003°06'4 8.8
2017-Nov-16 06:00N 43°29' W 003°07'3 6.8
2017-Nov-16 05:30N 43°33' W 003°09'611.0
2017-Nov-16 05:00N 43°38' W 003°10'612.7
2017-Nov-16 04:30N 43°44' W 003°13'612.9
2017-Nov-16 04:00N 43°50' W 003°16'611.9
2017-Nov-16 03:30N 43°55' W 003°20'612.8
2017-Nov-16 03:01N 43°57' W 003°29'612.7
2017-Nov-16 02:30N 43°57' W 003°37'612.6
2017-Nov-16 02:00N 43°58' W 003°46'612.4
2017-Nov-16 01:30N 43°59' W 003°55'612.4
2017-Nov-16 01:00N 43°60' W 004°03'612.5
2017-Nov-16 00:30N 44°00' W 004°12'2212.8
2017-Nov-15 22:46N 44°02' W 004°43'312.8
2017-Nov-15 22:30N 44°03' W 004°47'612.8
2017-Nov-15 22:00N 44°03' W 004°56'912.8
2017-Nov-15 21:18N 44°04' W 005°09'612.8
2017-Nov-15 20:48N 44°05' W 005°18'412.9
2017-Nov-15 20:30N 44°05' W 005°23'712.8
2017-Nov-15 20:00N 44°06' W 005°32'  
2017-Nov-12 17:46N 37°59' W 024°22'312.5
2017-Nov-12 17:30N 37°58' W 024°26'612.8
2017-Nov-12 17:00N 37°54' W 024°33'612.7
2017-Nov-12 16:31N 37°51' W 024°39'713.0
2017-Nov-12 16:01N 37°48' W 024°47'713.0
2017-Nov-12 15:31N 37°45' W 024°54'713.0
2017-Nov-12 15:00N 37°42' W 025°01'612.7
2017-Nov-12 14:31N 37°41' W 025°09'612.5
2017-Nov-12 14:01N 37°40' W 025°17'612.7
2017-Nov-12 13:30N 37°40' W 025°25'612.1
2017-Nov-12 13:01N 37°41' W 025°33'510.0
2017-Nov-12 12:30N 37°43' W 025°38'1 2.8
2017-Nov-12 12:01N 37°43' W 025°40'2 4.8
2017-Nov-12 11:31N 37°43' W 025°43'510.8
2017-Nov-12 11:01N 37°43' W 025°50'3 6.9
2017-Nov-12 10:30N 37°42' W 025°54'612.8
2017-Nov-12 10:01N 37°42' W 026°02'713.1
2017-Nov-12 09:30N 37°41' W 026°11'612.9
2017-Nov-12 09:00N 37°40' W 026°19'613.0
2017-Nov-12 08:31N 37°39' W 026°27'612.9
2017-Nov-12 08:00N 37°39' W 026°35'612.7
2017-Nov-12 07:31N 37°38' W 026°43'612.6
2017-Nov-12 07:00N 37°37' W 026°51'612.6
2017-Nov-12 06:30N 37°37' W 026°59'612.6
2017-Nov-12 06:00N 37°36' W 027°07'612.4
2017-Nov-12 05:30N 37°35' W 027°14'612.3
2017-Nov-12 05:00N 37°34' W 027°22'612.4
2017-Nov-12 04:31N 37°34' W 027°30'612.5
2017-Nov-12 04:00N 37°33' W 027°38'612.4
2017-Nov-12 03:31N 37°32' W 027°45'612.5
2017-Nov-12 03:00N 37°32' W 027°53'612.7
2017-Nov-12 02:30N 37°31' W 028°01'612.5
2017-Nov-12 02:00N 37°30' W 028°09'612.2
2017-Nov-12 01:30N 37°30' W 028°17'612.2
2017-Nov-12 01:00N 37°29' W 028°24'612.1
2017-Nov-12 00:30N 37°28' W 028°32'612.4
2017-Nov-12 00:00N 37°28' W 028°40'612.4
2017-Nov-11 23:30N 37°27' W 028°47'612.6
2017-Nov-11 23:00N 37°26' W 028°55'612.4
2017-Nov-11 22:30N 37°25' W 029°03'612.5
2017-Nov-11 22:00N 37°25' W 029°11'612.6
2017-Nov-11 21:30N 37°24' W 029°19'612.7
2017-Nov-11 21:01N 37°24' W 029°27'612.5
2017-Nov-11 20:30N 37°23' W 029°34'612.6
2017-Nov-11 20:00N 37°22' W 029°42'612.6
2017-Nov-11 19:30N 37°21' W 029°50'912.7
2017-Nov-11 18:48N 37°20' W 030°02'412.6
2017-Nov-11 18:30N 37°20' W 030°06'9312.4
2017-Nov-11 11:02N 37°11' W 032°02'  
Track history (hours):
 
Tides and Currents Weather Stations Pressure Air Temp Water Temp Dewpoint Dewpoint Depression Visibility Wind Speed Wind Dir Waves Ship Positions

Minerva Zenia

Last reported at 2017-Nov-20 00:18 UTC. Time now 2017-Nov-20 07:49 UTC.
Position N 50°23' E 000°24'.

Length 248 m; draft 7 m.

Type: Ship. MMSI: 240014000.

Date/timePositionNaut miles runAvg speedWind from/ knotsBaromVisibWave heightAir tempDewpointWater temp
2017-Nov-20 00:18N 50°23' E 000°24'311.2
2017-Nov-20 00:00N 50°22' E 000°19'611.6
2017-Nov-19 23:30N 50°21' E 000°11'612.1
2017-Nov-19 23:00N 50°19' E 000°02'612.7
2017-Nov-19 22:30N 50°18' W 000°08'713.2
2017-Nov-19 22:00N 50°16' W 000°18'2414.0
2017-Nov-19 20:18N 50°09' W 000°54'514.2
2017-Nov-19 19:58N 50°08' W 001°01'714.1
2017-Nov-19 19:29N 50°07' W 001°12'713.9
2017-Nov-19 19:00N 50°06' W 001°22'713.7
2017-Nov-19 18:30N 50°04' W 001°32'713.1
2017-Nov-19 18:00N 50°02' W 001°42'612.6
2017-Nov-19 17:30N 50°01' W 001°51'611.7
2017-Nov-19 17:00N 49°59' W 002°00'511.0
2017-Nov-19 16:30N 49°58' W 002°08'510.4
2017-Nov-19 16:00N 49°56' W 002°16'610.0
2017-Nov-19 15:27N 49°54' W 002°24'8 9.7
2017-Nov-19 14:36N 49°52' W 002°37'1 9.5
2017-Nov-19 14:27N 49°51' W 002°39'4 9.6
2017-Nov-19 14:00N 49°50' W 002°45'5 9.7
2017-Nov-19 13:30N 49°49' W 002°52'510.0
2017-Nov-19 13:00N 49°46' W 002°59'510.1
2017-Nov-19 12:30N 49°44' W 003°06'510.1
2017-Nov-19 12:00N 49°42' W 003°13'2010.4
2017-Nov-19 10:05N 49°32' W 003°40'210.4
2017-Nov-19 09:51N 49°30' W 003°43'510.5
2017-Nov-19 09:26N 49°28' W 003°49'4311.5
2017-Nov-19 05:44N 49°06' W 004°44'616.6
2017-Nov-19 05:24N 49°03' W 004°52'510.4
2017-Nov-19 04:55N 49°01' W 004°58'513.2
2017-Nov-19 04:30N 48°58' W 005°06'713.1
2017-Nov-19 04:00N 48°55' W 005°14'813.3
2017-Nov-19 03:23N 48°51' W 005°25'513.4
2017-Nov-19 03:00N 48°48' W 005°31'1012.9
2017-Nov-19 02:11N 48°39' W 005°41'212.8
2017-Nov-19 02:00N 48°37' W 005°43'712.7
2017-Nov-19 01:28N 48°31' W 005°47'812.3
2017-Nov-19 00:47N 48°24' W 005°53'311.9
2017-Nov-19 00:30N 48°20' W 005°53'612.0
2017-Nov-19 00:00N 48°14' W 005°52'611.5
2017-Nov-18 23:30N 48°09' W 005°50'611.4
2017-Nov-18 23:00N 48°03' W 005°47'610.8
2017-Nov-18 22:29N 47°58' W 005°44'510.7
2017-Nov-18 21:59N 47°53' W 005°41'510.7
2017-Nov-18 21:29N 47°49' W 005°37'710.6
2017-Nov-18 20:52N 47°42' W 005°33'510.6
2017-Nov-18 20:21N 47°37' W 005°30'410.6
2017-Nov-18 19:57N 47°34' W 005°28'510.5
2017-Nov-18 19:29N 47°29' W 005°25'510.5
2017-Nov-18 19:00N 47°24' W 005°22'510.6
2017-Nov-18 18:30N 47°19' W 005°19'610.3
2017-Nov-18 17:58N 47°14' W 005°16'510.4
2017-Nov-18 17:30N 47°10' W 005°14'510.4
2017-Nov-18 17:00N 47°05' W 005°11'510.6
2017-Nov-18 16:30N 46°60' W 005°09'510.3
2017-Nov-18 16:00N 46°55' W 005°06'510.5
2017-Nov-18 15:30N 46°50' W 005°03'611.1
2017-Nov-18 15:00N 46°45' W 004°60'711.3
2017-Nov-18 14:25N 46°39' W 004°56'511.3
2017-Nov-18 14:00N 46°35' W 004°53'811.2
2017-Nov-18 13:18N 46°27' W 004°49'311.4
2017-Nov-18 13:00N 46°24' W 004°47'611.6
2017-Nov-18 12:30N 46°19' W 004°44'611.2
2017-Nov-18 12:00N 46°14' W 004°41'610.9
2017-Nov-18 11:26N 46°08' W 004°38'510.8
2017-Nov-18 11:00N 46°03' W 004°36'13111.1
2017-Nov-17 23:11N 44°02' W 003°27'211.1
2017-Nov-17 23:01N 44°00' W 003°26'611.1
2017-Nov-17 22:26N 43°54' W 003°22'510.8
2017-Nov-17 22:00N 43°50' W 003°20'511.0
2017-Nov-17 21:30N 43°45' W 003°17'511.0
2017-Nov-17 21:00N 43°40' W 003°14'510.8
2017-Nov-17 20:30N 43°35' W 003°11'510.8
2017-Nov-17 20:00N 43°30' W 003°08'611.3
2017-Nov-17 19:30N 43°24' W 003°06'2 4.7
2017-Nov-17 19:00N 43°22' W 003°05'0 0.6
2017-Nov-17 18:30N 43°22' W 003°06'0 0.0
2017-Nov-16 08:57N 43°22' W 003°06'0 0.0
2017-Nov-16 08:30N 43°22' W 003°06'0 0.0
2017-Nov-16 08:00N 43°22' W 003°06'0 0.0
2017-Nov-16 07:30N 43°22' W 003°06'1 1.3
2017-Nov-16 07:00N 43°23' W 003°05'3 5.6
2017-Nov-16 06:30N 43°25' W 003°06'4 8.8
2017-Nov-16 06:00N 43°29' W 003°07'3 6.8
2017-Nov-16 05:30N 43°33' W 003°09'611.0
2017-Nov-16 05:00N 43°38' W 003°10'612.7
2017-Nov-16 04:30N 43°44' W 003°13'612.9
2017-Nov-16 04:00N 43°50' W 003°16'611.9
2017-Nov-16 03:30N 43°55' W 003°20'612.8
2017-Nov-16 03:01N 43°57' W 003°29'612.7
2017-Nov-16 02:30N 43°57' W 003°37'612.6
2017-Nov-16 02:00N 43°58' W 003°46'612.4
2017-Nov-16 01:30N 43°59' W 003°55'612.4
2017-Nov-16 01:00N 43°60' W 004°03'612.5
2017-Nov-16 00:30N 44°00' W 004°12'2212.8
2017-Nov-15 22:46N 44°02' W 004°43'312.8
2017-Nov-15 22:30N 44°03' W 004°47'612.8
2017-Nov-15 22:00N 44°03' W 004°56'912.8
2017-Nov-15 21:18N 44°04' W 005°09'612.8
2017-Nov-15 20:48N 44°05' W 005°18'412.9
2017-Nov-15 20:30N 44°05' W 005°23'712.8
2017-Nov-15 20:00N 44°06' W 005°32'  
2017-Nov-12 17:46N 37°59' W 024°22'312.5
2017-Nov-12 17:30N 37°58' W 024°26'612.8
2017-Nov-12 17:00N 37°54' W 024°33'612.7
2017-Nov-12 16:31N 37°51' W 024°39'713.0
2017-Nov-12 16:01N 37°48' W 024°47'713.0
2017-Nov-12 15:31N 37°45' W 024°54'713.0
2017-Nov-12 15:00N 37°42' W 025°01'612.7
2017-Nov-12 14:31N 37°41' W 025°09'612.5
2017-Nov-12 14:01N 37°40' W 025°17'612.7
2017-Nov-12 13:30N 37°40' W 025°25'612.1
2017-Nov-12 13:01N 37°41' W 025°33'510.0
2017-Nov-12 12:30N 37°43' W 025°38'1 2.8
2017-Nov-12 12:01N 37°43' W 025°40'2 4.8
2017-Nov-12 11:31N 37°43' W 025°43'510.8
2017-Nov-12 11:01N 37°43' W 025°50'3 6.9
2017-Nov-12 10:30N 37°42' W 025°54'612.8
2017-Nov-12 10:01N 37°42' W 026°02'713.1
2017-Nov-12 09:30N 37°41' W 026°11'612.9
2017-Nov-12 09:00N 37°40' W 026°19'613.0
2017-Nov-12 08:31N 37°39' W 026°27'612.9
2017-Nov-12 08:00N 37°39' W 026°35'612.7
2017-Nov-12 07:31N 37°38' W 026°43'612.6
2017-Nov-12 07:00N 37°37' W 026°51'612.6
2017-Nov-12 06:30N 37°37' W 026°59'612.6
2017-Nov-12 06:00N 37°36' W 027°07'612.4
2017-Nov-12 05:30N 37°35' W 027°14'612.3
2017-Nov-12 05:00N 37°34' W 027°22'612.4
2017-Nov-12 04:31N 37°34' W 027°30'612.5
2017-Nov-12 04:00N 37°33' W 027°38'612.4
2017-Nov-12 03:31N 37°32' W 027°45'612.5
2017-Nov-12 03:00N 37°32' W 027°53'612.7
2017-Nov-12 02:30N 37°31' W 028°01'612.5
2017-Nov-12 02:00N 37°30' W 028°09'612.2
2017-Nov-12 01:30N 37°30' W 028°17'612.2
2017-Nov-12 01:00N 37°29' W 028°24'612.1
2017-Nov-12 00:30N 37°28' W 028°32'612.4
2017-Nov-12 00:00N 37°28' W 028°40'612.4
2017-Nov-11 23:30N 37°27' W 028°47'612.6
2017-Nov-11 23:00N 37°26' W 028°55'612.4
2017-Nov-11 22:30N 37°25' W 029°03'612.5
2017-Nov-11 22:00N 37°25' W 029°11'612.6
2017-Nov-11 21:30N 37°24' W 029°19'612.7
2017-Nov-11 21:01N 37°24' W 029°27'612.5
2017-Nov-11 20:30N 37°23' W 029°34'612.6
2017-Nov-11 20:00N 37°22' W 029°42'612.6
2017-Nov-11 19:30N 37°21' W 029°50'912.7
2017-Nov-11 18:48N 37°20' W 030°02'412.6
2017-Nov-11 18:30N 37°20' W 030°06'9312.4
2017-Nov-11 11:02N 37°11' W 032°02'  

Dump ship's entire track history